»·PEaware :: N112PC KBOI-KHLN

N112PC :: KBOI-KHLN

FLIGHT INFORMATION

Flight Status: Arrived
Operator: Privately registered:
United States
More flights under this callsign
Pilot: Gabor H. (24209)
Aircraft: PILATUS PC-12 EAGLE
(PC12)
More flights by this aircraft type
Origin: KBOI Boise Air Terminal/Gowen
United States
Destination: KHLN Helena Regl
United States
More flights between these airports :: More routes between these airports
Route: +BOI V113 HLN
File this flight plan on PilotEdge
Remarks:
Altitude:
(Current/Filed)
23,000ft
Speed:
(Current/Filed)
260kts
Departed: 05-Jun-19 04:02 PM
Arrived: 05-Jun-19 05:01 PM
Distance/Time
Traveled:
255nm/0:59
Distance/Time
To Go:
Arrived

Flight Plot

Page will automatically refresh every two minutes.

Flight plan parsing failed; only flown route is shown


Map Options




Map Legend


Flown Route
Filed Route
Departure Airport
Arrival Airport
Navaid (VOR, NDB)
Fix

Horizontal Profiles

Position Reports

Time Latitude Longitude Heading Altitude Ground
Speed
05-Jun-19 15:32 43.565833 -116.244252 91 2837ft 0kts
05-Jun-19 15:33 43.565833 -116.244252 91 2837ft 0kts
05-Jun-19 15:34 43.565833 -116.244252 91 2837ft 0kts
05-Jun-19 15:35 43.565833 -116.244252 91 2837ft 0kts
05-Jun-19 15:36 43.565833 -116.244252 91 2837ft 0kts
05-Jun-19 15:37 43.565833 -116.244252 91 2837ft 0kts
05-Jun-19 15:38 43.565833 -116.244252 91 2837ft 0kts
05-Jun-19 15:39 43.565833 -116.244252 91 2837ft 0kts
05-Jun-19 15:40 43.565833 -116.244252 91 2837ft 0kts
05-Jun-19 15:41 43.565833 -116.244252 91 2837ft 0kts
05-Jun-19 15:42 43.565833 -116.244252 91 2837ft 0kts
05-Jun-19 15:43 43.565833 -116.244252 91 2837ft 0kts
05-Jun-19 15:44 43.565833 -116.244252 91 2837ft 0kts
05-Jun-19 15:45 43.565833 -116.244252 91 2837ft 0kts
05-Jun-19 15:46 43.565833 -116.244252 91 2837ft 0kts
05-Jun-19 15:47 43.565833 -116.244252 91 2837ft 0kts
05-Jun-19 15:48 43.565833 -116.244252 91 2837ft 0kts
05-Jun-19 15:49 43.565833 -116.244252 91 2837ft 0kts
05-Jun-19 15:50 43.565833 -116.244252 91 2837ft 0kts
05-Jun-19 15:51 43.565833 -116.244252 91 2837ft 0kts
05-Jun-19 15:52 43.565833 -116.244252 91 2837ft 0kts
05-Jun-19 15:53 43.565833 -116.244252 91 2837ft 0kts
05-Jun-19 15:54 43.565833 -116.244252 91 2837ft 0kts
05-Jun-19 15:55 43.565833 -116.244252 91 2837ft 0kts
05-Jun-19 15:56 43.565833 -116.244251 91 2837ft 0kts
05-Jun-19 15:57 43.565833 -116.244251 91 2837ft 0kts
05-Jun-19 15:58 43.565833 -116.244246 91 2837ft 0kts
05-Jun-19 15:59 43.567816 -116.242296 1 2837ft 20kts
05-Jun-19 16:00 43.568718 -116.242262 4 2837ft 0kts
05-Jun-19 16:01 43.569214 -116.240230 114 2837ft 55kts
05-Jun-19 16:02 43.555223 -116.199173 113 4091ft 150kts
05-Jun-19 16:03 43.537273 -116.142214 107 5609ft 162kts
05-Jun-19 16:04 43.526311 -116.081918 102 7128ft 165kts
05-Jun-19 16:05 43.544421 -116.029245 28 8630ft 173kts
05-Jun-19 16:06 43.592843 -115.993530 26 10168ft 213kts
05-Jun-19 16:07 43.647088 -115.953813 24 11708ft 227kts
05-Jun-19 16:08 43.706935 -115.910495 24 13199ft 248kts
05-Jun-19 16:09 43.770708 -115.863704 25 14718ft 265kts
05-Jun-19 16:10 43.831554 -115.801521 43 16208ft 272kts
05-Jun-19 16:11 43.883542 -115.726468 43 17721ft 269kts
05-Jun-19 16:12 43.936162 -115.651225 42 19216ft 270kts
05-Jun-19 16:13 43.988870 -115.576437 42 20700ft 267kts
05-Jun-19 16:14 44.040819 -115.502895 41 22210ft 265kts
05-Jun-19 16:15 44.094451 -115.426784 41 23034ft 287kts
05-Jun-19 16:16 44.151898 -115.344419 42 23043ft 302kts
05-Jun-19 16:17 44.210598 -115.260005 42 23047ft 304kts
05-Jun-19 16:18 44.269707 -115.175085 42 23060ft 305kts
05-Jun-19 16:19 44.329365 -115.089217 42 23048ft 306kts
05-Jun-19 16:20 44.388379 -115.004180 42 23049ft 304kts
05-Jun-19 16:21 44.447153 -114.919337 42 23047ft 303kts
05-Jun-19 16:22 44.505723 -114.834521 42 23045ft 303kts
05-Jun-19 16:23 44.564486 -114.749153 42 23022ft 303kts
05-Jun-19 16:24 44.622968 -114.663933 42 23039ft 305kts
05-Jun-19 16:25 44.682416 -114.576956 42 23017ft 306kts
05-Jun-19 16:27 44.741038 -114.491082 42 23035ft 305kts
05-Jun-19 16:28 44.800469 -114.403799 42 23012ft 306kts
05-Jun-19 16:29 44.859401 -114.317189 42 23026ft 306kts
05-Jun-19 16:30 44.919076 -114.229446 42 22996ft 308kts
05-Jun-19 16:31 44.978846 -114.142117 42 22993ft 309kts
05-Jun-19 16:32 45.040073 -114.055457 40 22963ft 308kts
05-Jun-19 16:33 45.102047 -113.972483 38 22961ft 307kts
05-Jun-19 16:34 45.165066 -113.890167 38 22960ft 307kts
05-Jun-19 16:35 45.228082 -113.808225 38 22962ft 307kts
05-Jun-19 16:36 45.291174 -113.726164 38 22966ft 307kts
05-Jun-19 16:37 45.354197 -113.644145 38 22974ft 308kts
05-Jun-19 16:38 45.417749 -113.561556 37 23002ft 310kts
05-Jun-19 16:39 45.482335 -113.478296 38 22991ft 310kts
05-Jun-19 16:40 45.545056 -113.394632 38 23005ft 308kts
05-Jun-19 16:41 45.607819 -113.311641 39 23034ft 310kts
05-Jun-19 16:42 45.670752 -113.225734 39 23021ft 310kts
05-Jun-19 16:43 45.733562 -113.141565 38 23032ft 307kts
05-Jun-19 16:44 45.796207 -113.058503 38 23040ft 306kts
05-Jun-19 16:45 45.858762 -112.976310 37 23048ft 305kts
05-Jun-19 16:45 45.910655 -112.906134 39 23054ft 306kts
05-Jun-19 16:47 45.985130 -112.805376 38 21877ft 321kts
05-Jun-19 16:48 46.050415 -112.716914 39 20174ft 321kts
05-Jun-19 16:48 46.104258 -112.643687 40 18765ft 320kts
05-Jun-19 16:50 46.178578 -112.540011 40 16815ft 315kts
05-Jun-19 16:50 46.231059 -112.468350 40 15372ft 306kts
05-Jun-19 16:51 46.293266 -112.384599 41 13672ft 300kts
05-Jun-19 16:53 46.362569 -112.288817 42 11704ft 287kts
05-Jun-19 16:53 46.408061 -112.226542 42 11026ft 244kts
05-Jun-19 16:54 46.453154 -112.164502 43 11005ft 205kts
05-Jun-19 16:55 46.494504 -112.110698 32 10241ft 175kts
05-Jun-19 16:56 46.534190 -112.077824 24 8344ft 162kts
05-Jun-19 16:57 46.574631 -112.050659 20 6172ft 154kts
05-Jun-19 16:58 46.608433 -112.034587 40 4867ft 102kts
05-Jun-19 16:59 46.608963 -112.001144 102 3993ft 87kts
05-Jun-19 17:00 46.606051 -111.984681 184 3880ft 12kts
05-Jun-19 17:01 46.603509 -111.982772 238 3880ft 11kts
05-Jun-19 17:02 46.603196 -111.992695 269 3880ft 12kts
05-Jun-19 17:03 46.602881 -111.996647 186 3880ft 6kts
05-Jun-19 17:04 46.602797 -111.997136 268 3880ft 0kts
05-Jun-19 17:05 46.602797 -111.997136 268 3880ft 0kts

Navigation Log

Ident Type
Flight plan parsing failed, navigation log unavailable